Terminal Aerodrome Forecast
Issued by NWS Chicago, IL

Home | Current Version | Previous Version | Text Only | Print | Product List | Glossary On
Versions: 1 2 3 4 5 6 7 8 9 10 11 12 13 14 15 16 17 18 19 20 21 22 23 24 25 26 27 28 29 30 31
516
FTUS43 KLOT 201748 CCA
TAFRFD
TAF COR
KRFD 201748Z 2018/2118 31011KT 4SM -SHRA BR SCT005 OVC010
      TEMPO 2018/2021 1SM TSRA BR BKN005CB
     FM202100 31011G19KT 2SM SHRA BR OVC004
     FM210100 31012G17KT 4SM -FZRAPL BR OVC008
     FM210300 32014G20KT P6SM SCT010 BKN080
     FM210900 34010KT P6SM BKN250=

USA.gov is the U.S. government's official web portal to all federal, state and local government web resources and services.